Time;durP1;ratioP1;P1;durP2;ratioP2;P2;SDS_P1;SDS_P2;PMS_P1;PMS_P2;Temp;Humidity;BMP_temperature;BMP_pressure;BME280_temperature;BME280_humidity;BME280_pressure;Samples;Min_cycle;Max_cycle;Signal;HPM_P1;HPM_P2
2023/10/20 00:01:51;;;;;;;0.40;0.40;;;;;;;12.23;100.00;97145.72;5000867;28;20037;-74
2023/10/20 00:04:16;;;;;;;0.30;0.30;;;;;;;12.24;100.00;97152.72;5000714;28;20045;-74
2023/10/20 00:06:42;;;;;;;0.35;0.35;;;;;;;12.27;100.00;97151.38;5016515;28;20095;-74
2023/10/20 00:09:08;;;;;;;0.30;0.30;;;;;;;12.26;100.00;97150.56;5016808;28;20033;-74
2023/10/20 00:11:34;;;;;;;0.30;0.30;;;;;;;12.23;100.00;97151.13;5000676;28;20037;-75
2023/10/20 00:14:00;;;;;;;0.30;0.30;;;;;;;12.24;100.00;97157.31;5000896;28;20040;-74
2023/10/20 00:16:29;;;;;;;0.40;0.40;;;;;;;12.24;100.00;97157.31;5000558;28;20470;-75
2023/10/20 00:18:56;;;;;;;0.40;0.40;;;;;;;12.22;100.00;97164.84;5016532;28;20033;-75
2023/10/20 00:21:23;;;;;;;0.38;0.38;;;;;;;12.20;100.00;97158.91;5033081;28;20135;-75
2023/10/20 00:23:49;;;;;;;0.40;0.40;;;;;;;12.20;100.00;97162.44;5033115;28;20120;-74
2023/10/20 00:26:15;;;;;;;0.30;0.30;;;;;;;12.16;100.00;97158.66;5000316;28;20124;-75
2023/10/20 00:28:41;;;;;;;0.40;0.40;;;;;;;12.19;100.00;97155.44;5000370;28;20029;-74
2023/10/20 00:31:06;;;;;;;0.30;0.30;;;;;;;12.20;100.00;97167.81;5032752;28;20120;-74
2023/10/20 00:33:32;;;;;;;0.40;0.40;;;;;;;12.20;100.00;97183.16;5000034;28;20056;-75
2023/10/20 00:35:58;;;;;;;0.40;0.40;;;;;;;12.20;100.00;97167.00;5016342;28;20033;-75
2023/10/20 00:38:23;;;;;;;0.30;0.30;;;;;;;12.18;100.00;97175.38;5016667;28;20034;-75
2023/10/20 00:40:49;;;;;;;0.30;0.30;;;;;;;12.18;100.00;97175.38;5000597;28;20095;-74
2023/10/20 00:43:15;;;;;;;0.40;0.40;;;;;;;12.18;100.00;97186.13;5000072;28;20087;-74
2023/10/20 00:45:43;;;;;;;0.40;0.40;;;;;;;12.19;100.00;97178.88;5000217;28;20048;-74
2023/10/20 00:48:11;;;;;;;0.40;0.40;;;;;;;12.19;100.00;97186.94;5000118;28;20033;-75
2023/10/20 00:50:38;;;;;;;0.40;0.40;;;;;;;12.17;100.00;97181.00;5016441;28;20060;-75
2023/10/20 00:53:05;;;;;;;0.32;0.32;;;;;;;12.18;100.00;97183.44;5016566;28;20036;-74
2023/10/20 00:55:31;;;;;;;0.30;0.30;;;;;;;12.17;100.00;97189.94;5016357;28;20049;-74
2023/10/20 00:57:57;;;;;;;0.40;0.40;;;;;;;12.17;100.00;97189.94;5016372;28;20410;-74
2023/10/20 01:00:22;;;;;;;0.40;0.40;;;;;;;12.16;100.00;97190.19;5000229;28;20129;-74
2023/10/20 01:02:48;;;;;;;0.30;0.30;;;;;;;12.17;100.00;97191.78;4999981;28;20479;-75
2023/10/20 01:05:22;;;;;;;0.28;0.28;;;;;;;12.17;100.00;97200.69;5016314;28;20060;-75
2023/10/20 01:07:48;;;;;;;0.30;0.30;;;;;;;12.19;100.00;97201.22;5017049;28;20045;-75
2023/10/20 01:10:14;;;;;;;0.40;0.40;;;;;;;12.20;100.00;97202.00;4999848;28;20168;-75
2023/10/20 01:12:40;;;;;;;0.30;0.30;;;;;;;12.19;100.00;97200.41;5016417;28;20048;-74
2023/10/20 01:15:06;;;;;;;0.40;0.40;;;;;;;12.20;100.00;97199.31;5000373;28;20367;-74
2023/10/20 01:17:33;;;;;;;0.30;0.30;;;;;;;12.19;100.00;97193.13;5016162;28;20118;-74
2023/10/20 01:20:04;;;;;;;0.30;0.30;;;;;;;12.20;100.00;97193.94;5016138;28;20037;-74
2023/10/20 01:22:30;;;;;;;0.40;0.40;;;;;;;12.18;100.00;97196.91;4986174;28;20067;-74
2023/10/20 01:24:56;;;;;;;0.35;0.35;;;;;;;12.17;100.00;97195.31;5003749;28;20037;-74
2023/10/20 01:27:22;;;;;;;0.30;0.30;;;;;;;12.18;100.00;97202.31;5036027;28;20487;-74
2023/10/20 01:29:47;;;;;;;0.40;0.40;;;;;;;12.16;100.00;97193.69;5019602;28;20026;-75
2023/10/20 01:32:13;;;;;;;0.30;0.30;;;;;;;12.17;100.00;97197.19;5003648;28;20163;-75
2023/10/20 01:34:39;;;;;;;0.30;0.30;;;;;;;12.19;100.00;97203.91;5019943;28;20026;-75
2023/10/20 01:37:05;;;;;;;0.30;0.30;;;;;;;12.17;100.00;97206.09;5037349;28;20048;-75
2023/10/20 01:39:30;;;;;;;0.40;0.40;;;;;;;12.18;100.00;97206.88;5003463;28;20037;-74
2023/10/20 01:41:56;;;;;;;0.30;0.30;;;;;;;12.16;100.00;97207.16;5003456;28;20044;-74
2023/10/20 01:44:22;;;;;;;0.30;0.30;;;;;;;12.17;100.00;97210.63;4987208;28;20034;-75
2023/10/20 01:46:51;;;;;;;0.30;0.30;;;;;;;12.19;100.00;97211.19;5035851;28;20034;-74
2023/10/20 01:49:18;;;;;;;0.30;0.30;;;;;;;12.15;100.00;97210.94;5019995;28;20038;-75
2023/10/20 01:51:43;;;;;;;0.38;0.38;;;;;;;12.16;100.00;97207.16;5003226;28;20066;-74
2023/10/20 01:54:09;;;;;;;0.30;0.30;;;;;;;12.14;100.00;97216.56;5019562;28;20033;-74
2023/10/20 01:56:35;;;;;;;0.30;0.30;;;;;;;12.13;100.00;97215.78;5019257;28;20025;-74
2023/10/20 01:59:00;;;;;;;0.40;0.40;;;;;;;12.13;100.00;97221.16;5003173;28;20037;-75
2023/10/20 02:01:26;;;;;;;0.30;0.30;;;;;;;12.16;100.00;97220.63;5003535;28;20041;-74
2023/10/20 02:03:52;;;;;;;0.35;0.35;;;;;;;12.19;100.00;97224.66;5019423;28;20036;-74
2023/10/20 02:06:18;;;;;;;0.30;0.30;;;;;;;12.21;100.00;97220.59;5019037;28;20029;-75
2023/10/20 02:08:44;;;;;;;0.30;0.30;;;;;;;12.22;100.00;97213.31;5002702;28;20390;-75
2023/10/20 02:11:09;;;;;;;0.30;0.30;;;;;;;12.21;100.00;97209.84;5018996;28;20037;-74
2023/10/20 02:13:36;;;;;;;0.30;0.30;;;;;;;12.23;100.00;97215.75;5002901;28;20029;-74
2023/10/20 02:16:02;;;;;;;0.30;0.30;;;;;;;12.23;100.00;97218.44;5019279;28;20040;-74
2023/10/20 02:18:28;;;;;;;0.30;0.30;;;;;;;12.23;100.00;97218.44;5002808;28;20029;-74
2023/10/20 02:20:57;;;;;;;0.30;0.30;;;;;;;12.25;100.00;97223.53;5018580;28;20099;-75
2023/10/20 02:23:24;;;;;;;0.38;0.38;;;;;;;12.25;100.00;97215.47;5035536;28;20036;-74
2023/10/20 02:25:59;;;;;;;0.30;0.30;;;;;;;12.23;100.00;97218.44;5002639;28;20071;-74
2023/10/20 02:28:26;;;;;;;0.30;0.30;;;;;;;12.22;100.00;97219.50;5018817;28;20030;-74
2023/10/20 02:30:54;;;;;;;0.30;0.30;;;;;;;12.22;100.00;97219.50;5018863;28;20045;-74
2023/10/20 02:33:19;;;;;;;0.30;0.30;;;;;;;12.23;100.00;97223.84;5002670;28;20041;-74
2023/10/20 02:35:45;;;;;;;0.40;0.40;;;;;;;12.23;100.00;97223.84;5035222;28;20041;-74
2023/10/20 02:38:10;;;;;;;0.40;0.40;;;;;;;12.24;100.00;97228.13;5002454;28;20044;-74
2023/10/20 02:40:36;;;;;;;0.40;0.40;;;;;;;12.23;100.00;97226.53;5002415;28;20385;-74
2023/10/20 02:43:02;;;;;;;0.35;0.35;;;;;;;12.22;100.00;97218.72;5002307;28;20094;-75
2023/10/20 02:45:27;;;;;;;0.30;0.30;;;;;;;12.21;100.00;97226.00;5002372;28;20045;-74
2023/10/20 02:47:53;;;;;;;0.30;0.30;;;;;;;12.24;100.00;97227.34;5002069;28;20034;-74
2023/10/20 02:50:18;;;;;;;0.30;0.30;;;;;;;12.23;100.00;97225.72;5001986;28;20421;-74
2023/10/20 02:52:44;;;;;;;0.30;0.30;;;;;;;12.22;100.00;97224.91;5034818;28;20079;-74
2023/10/20 02:55:10;;;;;;;0.32;0.32;;;;;;;12.25;100.00;97224.38;5017979;28;20040;-74
2023/10/20 02:57:36;;;;;;;0.40;0.40;;;;;;;12.26;100.00;97231.38;5002089;28;20029;-75
2023/10/20 03:00:10;;;;;;;0.40;0.40;;;;;;;12.27;100.00;97214.13;5002058;28;20033;-74
2023/10/20 03:02:36;;;;;;;0.30;0.30;;;;;;;12.25;100.00;97213.59;5019441;28;20460;-75
2023/10/20 03:05:02;;;;;;;0.35;0.35;;;;;;;12.23;100.00;97207.69;5001785;28;20392;-75
2023/10/20 03:07:28;;;;;;;0.35;0.35;;;;;;;12.23;100.00;97212.25;5017883;28;20030;-74
2023/10/20 03:09:55;;;;;;;0.30;0.30;;;;;;;12.20;100.00;97213.63;5034209;28;20033;-74
2023/10/20 03:12:20;;;;;;;0.40;0.40;;;;;;;12.20;100.00;97218.16;5017891;28;20041;-74
2023/10/20 03:14:48;;;;;;;0.30;0.30;;;;;;;12.17;100.00;97219.56;5002325;28;20341;-75
2023/10/20 03:17:14;;;;;;;0.40;0.40;;;;;;;12.14;100.00;97217.38;5018315;28;20037;-75
2023/10/20 03:19:40;;;;;;;0.30;0.30;;;;;;;12.09;100.00;97212.00;5018062;28;20087;-74
2023/10/20 03:22:06;;;;;;;0.40;0.40;;;;;;;12.15;100.00;97229.78;5034298;28;20046;-74
2023/10/20 03:24:32;;;;;;;0.30;0.30;;;;;;;12.15;100.00;97226.28;5018023;28;20040;-74
2023/10/20 03:26:58;;;;;;;0.40;0.40;;;;;;;12.15;100.00;97227.09;5017486;28;20087;-75
2023/10/20 03:29:25;;;;;;;0.28;0.28;;;;;;;12.15;100.00;97228.97;5001494;28;20083;-75
2023/10/20 03:31:50;;;;;;;0.40;0.40;;;;;;;12.12;100.00;97222.25;5001380;28;20033;-74
2023/10/20 03:34:16;;;;;;;0.43;0.43;;;;;;;12.14;100.00;97228.16;5018005;28;20111;-74
2023/10/20 03:36:41;;;;;;;0.40;0.40;;;;;;;12.10;100.00;97225.22;5017254;28;20029;-74
2023/10/20 03:39:19;;;;;;;0.32;0.32;;;;;;;12.09;100.00;97220.91;5001586;28;20467;-74
2023/10/20 03:41:45;;;;;;;0.30;0.30;;;;;;;12.13;100.00;97231.13;5002946;28;20060;-74
2023/10/20 03:44:11;;;;;;;0.30;0.30;;;;;;;12.14;100.00;97230.84;5000644;28;20044;-74
2023/10/20 03:46:45;;;;;;;0.30;0.30;;;;;;;12.16;100.00;97235.97;5016930;28;20029;-74
2023/10/20 03:49:10;;;;;;;0.30;0.30;;;;;;;12.16;100.00;97233.28;5002855;28;20029;-74
2023/10/20 03:51:37;;;;;;;0.30;0.30;;;;;;;12.17;100.00;97235.72;5033987;28;20037;-74
2023/10/20 03:54:05;;;;;;;0.40;0.40;;;;;;;12.16;100.00;97236.78;5018100;28;20468;-74
2023/10/20 03:56:34;;;;;;;0.30;0.30;;;;;;;12.15;100.00;97240.56;5001189;28;20537;-74
2023/10/20 03:59:01;;;;;;;0.30;0.30;;;;;;;12.16;100.00;97242.16;5033565;28;20463;-75
2023/10/20 04:01:30;;;;;;;0.40;0.40;;;;;;;12.16;100.00;97242.16;5000926;28;20036;-75
2023/10/20 04:03:55;;;;;;;0.32;0.32;;;;;;;12.15;100.00;97240.56;4986159;28;20128;-74
2023/10/20 04:06:22;;;;;;;0.38;0.38;;;;;;;12.15;100.00;97235.16;5017226;28;20544;-74
2023/10/20 04:08:48;;;;;;;0.30;0.30;;;;;;;12.16;100.00;97250.25;5017236;28;20486;-74
2023/10/20 04:11:14;;;;;;;0.32;0.32;;;;;;;12.14;100.00;97244.31;5033611;28;20356;-74
2023/10/20 04:13:40;;;;;;;0.30;0.30;;;;;;;12.09;100.00;97247.84;5033085;28;20082;-74
2023/10/20 04:16:12;;;;;;;0.30;0.30;;;;;;;12.13;100.00;97256.16;5016997;28;20144;-74
2023/10/20 04:18:44;;;;;;;0.30;0.30;;;;;;;12.13;100.00;97253.47;5033028;28;20365;-74
2023/10/20 04:21:11;;;;;;;0.30;0.30;;;;;;;12.13;100.00;97252.69;5000568;28;20129;-74
2023/10/20 04:23:37;;;;;;;0.30;0.30;;;;;;;12.13;100.00;97255.38;5033040;28;20029;-74
2023/10/20 04:26:16;;;;;;;0.38;0.38;;;;;;;12.12;100.00;97257.25;5000362;28;20459;-74
2023/10/20 04:28:44;;;;;;;0.40;0.40;;;;;;;12.10;100.00;97254.03;5001881;28;20136;-74
2023/10/20 04:47:48;;;;;;;0.30;0.30;;;;;;;12.10;100.00;97271.00;5032661;28;20025;-74
2023/10/20 04:53:08;;;;;;;0.38;0.38;;;;;;;12.09;100.00;97279.31;5018952;28;20029;-74
2023/10/20 04:58:24;;;;;;;0.40;0.40;;;;;;;12.07;100.00;97281.50;5018607;28;20369;-74
2023/10/20 05:01:03;;;;;;;0.40;0.40;;;;;;;12.07;100.00;97276.13;5033031;28;20060;-74
2023/10/20 05:03:45;;;;;;;0.40;0.40;;;;;;;12.07;100.00;97281.50;5018355;28;20029;-74
2023/10/20 05:06:22;;;;;;;0.30;0.30;;;;;;;12.04;100.00;97277.47;5018439;28;20108;-75
2023/10/20 05:08:48;;;;;;;0.30;0.30;;;;;;;12.06;100.00;97287.94;5017463;28;20040;-74
2023/10/20 05:11:13;;;;;;;0.30;0.30;;;;;;;12.07;100.00;97278.81;4999897;28;20041;-74
2023/10/20 05:13:39;;;;;;;0.30;0.30;;;;;;;12.07;100.00;97273.41;4999924;28;20037;-74
2023/10/20 05:16:04;;;;;;;0.30;0.30;;;;;;;12.06;100.00;97274.47;4999797;28;20128;-74
2023/10/20 05:18:31;;;;;;;0.35;0.35;;;;;;;12.05;100.00;97279.06;4999836;28;20041;-74
2023/10/20 05:20:56;;;;;;;0.40;0.40;;;;;;;12.04;100.00;97282.03;4999789;28;20033;-75
2023/10/20 05:23:22;;;;;;;0.30;0.30;;;;;;;12.04;100.00;97292.78;4999641;28;20098;-74
2023/10/20 05:25:49;;;;;;;0.40;0.40;;;;;;;12.04;100.00;97284.72;5016033;28;20044;-74
2023/10/20 05:28:18;;;;;;;0.40;0.40;;;;;;;12.04;100.00;97293.63;5015524;28;20029;-74
2023/10/20 05:30:45;;;;;;;0.30;0.30;;;;;;;11.98;100.00;97281.22;5032593;28;20468;-74
2023/10/20 05:33:11;;;;;;;0.40;0.40;;;;;;;12.02;100.00;97284.19;5015511;28;20026;-74
2023/10/20 05:35:38;;;;;;;0.30;0.30;;;;;;;11.99;100.00;97280.16;4999556;28;20060;-74
2023/10/20 05:38:05;;;;;;;0.40;0.40;;;;;;;11.99;100.00;97287.44;5032468;28;20100;-74
2023/10/20 05:40:33;;;;;;;0.30;0.30;;;;;;;11.97;100.00;97287.69;5016190;28;20203;-74
2023/10/20 05:43:01;;;;;;;0.30;0.30;;;;;;;11.97;100.00;97292.28;5015772;28;20060;-74
2023/10/20 05:45:32;;;;;;;0.30;0.30;;;;;;;11.97;100.00;97289.59;5016262;28;20042;-74
2023/10/20 05:47:59;;;;;;;0.30;0.30;;;;;;;11.96;100.00;97288.78;5016610;28;20036;-74
2023/10/20 05:50:24;;;;;;;0.40;0.40;;;;;;;11.95;100.00;97294.41;4999444;28;20029;-74
2023/10/20 05:52:53;;;;;;;0.30;0.30;;;;;;;11.93;100.00;97293.88;5016439;28;20045;-74
2023/10/20 05:55:19;;;;;;;0.30;0.30;;;;;;;11.93;100.00;97293.88;4999501;28;20079;-74
2023/10/20 05:57:45;;;;;;;0.30;0.30;;;;;;;11.92;100.00;97294.97;4999073;28;20037;-74
2023/10/20 06:00:13;;;;;;;0.30;0.30;;;;;;;11.89;100.00;97296.31;5015648;28;20053;-74
2023/10/20 06:02:41;;;;;;;0.35;0.35;;;;;;;11.91;100.00;97302.25;5031888;28;20049;-74
2023/10/20 06:05:07;;;;;;;0.30;0.30;;;;;;;11.89;100.00;97296.31;5031724;28;20029;-75
2023/10/20 06:07:33;;;;;;;0.30;0.30;;;;;;;11.87;100.00;97301.94;5016219;28;20419;-74
2023/10/20 06:09:59;;;;;;;0.30;0.30;;;;;;;11.87;100.00;97309.22;5018882;28;20472;-74
2023/10/20 06:12:24;;;;;;;0.40;0.40;;;;;;;11.88;100.00;97305.44;5002931;28;20115;-74
2023/10/20 06:14:50;;;;;;;0.40;0.40;;;;;;;11.87;100.00;97299.25;5018760;28;20037;-74
2023/10/20 06:17:18;;;;;;;0.30;0.30;;;;;;;11.85;100.00;97306.78;5002756;28;20038;-75
2023/10/20 06:19:46;;;;;;;0.40;0.40;;;;;;;11.86;100.00;97315.69;5003033;28;20041;-75
2023/10/20 06:22:12;;;;;;;0.40;0.40;;;;;;;11.83;100.00;97311.63;5019261;28;20550;-74
2023/10/20 06:24:38;;;;;;;0.30;0.30;;;;;;;11.84;100.00;97328.56;5019120;28;20124;-74
2023/10/20 06:27:04;;;;;;;0.30;0.30;;;;;;;11.81;100.00;97321.84;5018568;28;20100;-74
2023/10/20 06:32:08;;;;;;;0.40;0.40;;;;;;;11.82;100.00;97328.81;5019268;28;20037;-74
2023/10/20 06:34:37;;;;;;;0.40;0.40;;;;;;;11.82;100.00;97334.22;5020289;28;20033;-74
2023/10/20 06:37:08;;;;;;;0.30;0.30;;;;;;;11.85;100.00;97343.63;5036269;28;20041;-74
2023/10/20 06:40:20;;;;;;;0.40;0.40;;;;;;;11.85;100.00;97352.53;5019063;28;20071;-74
2023/10/20 06:43:16;;;;;;;0.40;0.40;;;;;;;11.87;100.00;97363.06;4999812;28;20038;-75
2023/10/20 06:45:43;;;;;;;0.38;0.38;;;;;;;11.85;100.00;97359.78;5018444;28;20034;-74
2023/10/20 06:48:09;;;;;;;0.40;0.40;;;;;;;11.86;100.00;97367.63;5018044;28;20357;-74
2023/10/20 06:50:35;;;;;;;0.30;0.30;;;;;;;11.87;100.00;97363.88;5018619;28;20025;-74
2023/10/20 06:53:01;;;;;;;0.40;0.40;;;;;;;11.88;100.00;97370.88;5018140;28;20029;-75
2023/10/20 06:55:27;;;;;;;0.32;0.32;;;;;;;11.85;100.00;97366.00;5001859;28;20049;-74
2023/10/20 06:57:53;;;;;;;0.30;0.30;;;;;;;11.84;100.00;97372.44;5034403;28;20121;-74
2023/10/20 07:00:21;;;;;;;0.30;0.30;;;;;;;11.85;100.00;97371.38;5018315;28;20124;-74
2023/10/20 07:02:47;;;;;;;0.30;0.30;;;;;;;11.87;100.00;97376.53;5002412;28;20475;-74
2023/10/20 07:05:14;;;;;;;0.30;0.30;;;;;;;11.85;100.00;97382.16;5017918;28;20045;-75
2023/10/20 07:07:40;;;;;;;0.35;0.35;;;;;;;11.85;100.00;97375.94;5001746;28;20511;-74
2023/10/20 07:10:10;;;;;;;0.40;0.40;;;;;;;11.82;100.00;97379.97;5017484;28;20438;-74
2023/10/20 07:12:41;;;;;;;0.30;0.30;;;;;;;11.79;100.00;97375.13;5034582;28;20116;-75
2023/10/20 07:15:07;;;;;;;0.50;0.50;;;;;;;11.80;100.00;97374.06;5017972;28;20120;-74
2023/10/20 07:17:32;;;;;;;0.35;0.35;;;;;;;11.81;100.00;97382.94;5017769;28;20033;-74
2023/10/20 07:19:58;;;;;;;0.40;0.40;;;;;;;11.77;100.00;97379.16;5017461;28;20033;-74
2023/10/20 07:22:24;;;;;;;0.40;0.40;;;;;;;11.71;100.00;97377.53;5001428;28;20468;-75
2023/10/20 07:24:49;;;;;;;0.32;0.32;;;;;;;11.67;100.00;97385.34;5017829;28;20036;-74
2023/10/20 07:27:16;;;;;;;0.32;0.32;;;;;;;11.67;100.00;97382.66;5001240;28;20056;-74
2023/10/20 07:29:42;;;;;;;0.30;0.30;;;;;;;11.69;100.00;97385.06;5017936;28;20041;-74
2023/10/20 07:32:07;;;;;;;0.32;0.32;;;;;;;11.70;100.00;97389.41;5001648;28;20033;-74
2023/10/20 07:34:33;;;;;;;0.30;0.30;;;;;;;11.72;100.00;97384.53;5017604;28;20033;-74
2023/10/20 07:36:59;;;;;;;0.30;0.30;;;;;;;11.75;100.00;97392.91;5001913;28;20372;-74
2023/10/20 07:39:24;;;;;;;0.40;0.40;;;;;;;11.78;100.00;97396.94;5033588;28;20486;-75
2023/10/20 07:41:50;;;;;;;0.30;0.30;;;;;;;11.80;100.00;97409.06;5017122;28;20037;-75
2023/10/20 07:44:16;;;;;;;0.40;0.40;;;;;;;11.83;100.00;97405.84;5017529;28;20044;-74
2023/10/20 07:46:42;;;;;;;0.30;0.30;;;;;;;11.87;100.00;97408.81;5000639;28;20576;-75
2023/10/20 07:49:11;;;;;;;0.30;0.30;;;;;;;11.90;100.00;97415.56;5017309;28;20041;-74
2023/10/20 07:51:40;;;;;;;0.40;0.40;;;;;;;11.94;100.00;97419.34;5018782;28;20124;-74
2023/10/20 07:54:07;;;;;;;0.30;0.30;;;;;;;11.99;100.00;97425.56;5001652;28;20521;-75
2023/10/20 07:56:32;;;;;;;0.30;0.30;;;;;;;12.06;100.00;97427.97;5017370;28;20037;-74
2023/10/20 07:58:58;;;;;;;0.30;0.30;;;;;;;12.12;100.00;97426.09;5016592;28;20106;-74
2023/10/20 08:01:24;;;;;;;0.30;0.30;;;;;;;12.15;100.00;97431.78;5017227;28;20037;-75
2023/10/20 08:03:50;;;;;;;0.43;0.43;;;;;;;12.18;100.00;97435.81;5016875;28;20037;-75
2023/10/20 08:06:15;;;;;;;0.30;0.30;;;;;;;12.24;100.00;97432.03;5000548;28;20081;-74
2023/10/20 08:08:41;;;;;;;0.40;0.40;;;;;;;12.27;100.00;97421.53;5017018;28;20033;-75
2023/10/20 08:11:07;;;;;;;0.40;0.40;;;;;;;12.26;100.00;97421.81;5000822;28;20095;-74
2023/10/20 08:13:36;;;;;;;0.40;0.40;;;;;;;12.31;100.00;97425.31;5033578;28;20029;-75
2023/10/20 08:16:03;;;;;;;0.40;0.40;;;;;;;12.35;100.00;97433.66;5017252;28;20490;-74
2023/10/20 08:18:33;;;;;;;0.30;0.30;;;;;;;12.38;100.00;97422.34;5017174;28;20044;-75
2023/10/20 08:21:16;;;;;;;0.30;0.30;;;;;;;12.38;100.00;97416.16;4999817;28;20411;-75
2023/10/20 08:23:43;;;;;;;0.40;0.40;;;;;;;12.38;100.00;97418.84;5013761;28;20096;-75
2023/10/20 08:26:21;;;;;;;0.40;0.40;;;;;;;12.38;100.00;97425.03;5031737;28;20040;-75
2023/10/20 08:28:49;;;;;;;0.40;0.40;;;;;;;12.42;100.00;97423.44;5047832;28;20084;-74
2023/10/20 08:31:16;;;;;;;0.30;0.30;;;;;;;12.44;100.00;97425.88;5016602;28;20041;-74
2023/10/20 08:33:42;;;;;;;0.32;0.32;;;;;;;12.45;100.00;97425.59;5016736;28;20037;-75
2023/10/20 08:36:11;;;;;;;0.40;0.40;;;;;;;12.41;100.00;97432.59;4999984;28;20042;-74
2023/10/20 08:38:38;;;;;;;0.30;0.30;;;;;;;12.35;100.00;97435.56;5017402;28;20372;-74
2023/10/20 08:41:17;;;;;;;0.30;0.30;;;;;;;12.30;100.00;97441.72;5016404;28;20415;-74
2023/10/20 08:43:44;;;;;;;0.30;0.30;;;;;;;12.31;100.00;97443.38;5016520;28;20048;-75
2023/10/20 08:46:11;;;;;;;0.30;0.30;;;;;;;12.33;100.00;97441.19;4999788;28;20029;-74
2023/10/20 08:48:41;;;;;;;0.40;0.40;;;;;;;12.47;100.00;97446.88;4999698;28;20029;-74
2023/10/20 08:51:08;;;;;;;0.30;0.30;;;;;;;12.62;100.00;97446.88;4999685;28;20527;-74
2023/10/20 08:53:36;;;;;;;0.40;0.40;;;;;;;12.60;100.00;97449.03;4999413;28;20038;-74
2023/10/20 08:56:07;;;;;;;0.50;0.50;;;;;;;12.57;100.00;97457.66;5016120;28;20613;-74
2023/10/20 08:58:33;;;;;;;0.40;0.40;;;;;;;12.67;100.00;97454.94;4999787;28;20045;-74
2023/10/20 09:00:59;;;;;;;0.43;0.43;;;;;;;13.01;100.00;97454.38;4999974;28;20036;-74
2023/10/20 09:03:41;;;;;;;0.40;0.40;;;;;;;13.20;100.00;97455.44;4999892;28;20084;-75
2023/10/20 09:06:09;;;;;;;0.50;0.50;;;;;;;13.31;100.00;97461.66;5032452;28;20037;-74
2023/10/20 09:08:36;;;;;;;0.40;0.40;;;;;;;13.32;100.00;97465.16;5033109;28;20460;-75
2023/10/20 09:11:05;;;;;;;0.50;0.50;;;;;;;13.42;100.00;97457.03;5032186;28;20479;-75
2023/10/20 09:13:34;;;;;;;0.30;0.30;;;;;;;13.52;100.00;97456.16;5032508;28;20518;-74
2023/10/20 09:16:02;;;;;;;0.32;0.32;;;;;;;13.32;100.00;97457.84;5016398;28;20029;-74
2023/10/20 09:18:29;;;;;;;0.40;0.40;;;;;;;13.34;100.00;97463.78;5016187;28;20395;-74
2023/10/20 09:21:05;;;;;;;0.30;0.30;;;;;;;13.33;100.00;97461.34;4999609;28;20056;-74
2023/10/20 09:23:32;;;;;;;0.30;0.30;;;;;;;13.44;100.00;97470.22;5028546;28;20567;-77
2023/10/20 09:25:58;;;;;;;0.30;0.30;;;;;;;13.58;100.00;97466.69;5031140;28;20029;-75
2023/10/20 09:28:24;;;;;;;0.40;0.40;;;;;;;13.75;100.00;97468.22;5062335;28;20112;-75
2023/10/20 09:30:49;;;;;;;0.38;0.38;;;;;;;13.81;100.00;97469.81;5014076;28;20187;-75
2023/10/20 09:33:15;;;;;;;0.40;0.40;;;;;;;13.93;100.00;97473.00;5031322;28;20026;-75
2023/10/20 09:35:41;;;;;;;0.30;0.30;;;;;;;14.08;100.00;97472.94;5029193;28;20124;-76
2023/10/20 09:38:15;;;;;;;0.40;0.40;;;;;;;14.22;100.00;97477.72;5015084;28;20069;-75
2023/10/20 09:40:42;;;;;;;0.38;0.38;;;;;;;14.34;100.00;97483.56;5014387;28;20402;-74
2023/10/20 09:43:22;;;;;;;0.40;0.40;;;;;;;14.45;100.00;97484.31;5015235;28;20076;-74
2023/10/20 09:45:52;;;;;;;0.30;0.30;;;;;;;14.59;100.00;97477.22;5018514;28;20091;-74
2023/10/20 09:48:19;;;;;;;0.40;0.40;;;;;;;14.72;100.00;97481.97;5017260;28;20033;-74
2023/10/20 09:50:49;;;;;;;0.38;0.38;;;;;;;14.80;100.00;97475.16;4982029;28;20042;-76
2023/10/20 09:53:18;;;;;;;0.40;0.40;;;;;;;14.79;100.00;97483.53;5037336;28;20041;-74
2023/10/20 09:55:45;;;;;;;0.40;0.40;;;;;;;14.72;100.00;97483.88;4998741;28;20391;-73
2023/10/20 09:58:11;;;;;;;0.40;0.40;;;;;;;14.77;100.00;97486.53;5050727;28;20076;-74
2023/10/20 10:00:42;;;;;;;0.30;0.30;;;;;;;14.86;100.00;97489.44;5001132;28;20967;-74
2023/10/20 10:03:08;;;;;;;0.40;0.40;;;;;;;15.05;100.00;97484.13;5017046;28;20037;-74
2023/10/20 10:05:37;;;;;;;0.38;0.38;;;;;;;15.23;100.00;97486.13;5016627;28;20120;-74
2023/10/20 10:08:08;;;;;;;0.40;0.40;;;;;;;15.36;100.00;97487.34;5033107;28;21023;-74
2023/10/20 10:10:37;;;;;;;0.50;0.50;;;;;;;15.51;100.00;97489.91;5035460;28;20368;-74
2023/10/20 10:13:06;;;;;;;0.40;0.40;;;;;;;15.60;100.00;97487.34;4999140;28;20052;-74
2023/10/20 10:15:45;;;;;;;0.30;0.30;;;;;;;15.68;100.00;97494.03;5018342;28;20415;-74
2023/10/20 10:18:13;;;;;;;0.40;0.40;;;;;;;15.47;100.00;97493.47;5033606;28;20946;-74
2023/10/20 10:20:48;;;;;;;0.40;0.40;;;;;;;15.42;100.00;97497.00;5015948;28;20041;-74
2023/10/20 10:23:14;;;;;;;0.40;0.40;;;;;;;15.38;100.00;97499.50;4999146;28;20033;-74
2023/10/20 10:25:41;;;;;;;0.40;0.40;;;;;;;15.57;100.00;97496.84;5018954;28;20107;-74
2023/10/20 10:28:19;;;;;;;0.30;0.30;;;;;;;15.38;100.00;97498.69;5015418;28;20065;-75
2023/10/20 10:30:47;;;;;;;0.30;0.30;;;;;;;14.81;100.00;97497.59;5018605;28;20075;-74
2023/10/20 10:33:22;;;;;;;0.30;0.30;;;;;;;14.42;100.00;97496.50;5032763;28;20040;-74
2023/10/20 10:35:48;;;;;;;0.50;0.50;;;;;;;14.65;100.00;97500.41;5000156;28;20562;-74
2023/10/20 10:38:20;;;;;;;0.50;0.50;;;;;;;15.67;100.00;97503.28;5028097;28;20041;-74
2023/10/20 10:40:47;;;;;;;0.47;0.47;;;;;;;15.81;100.00;97504.19;5032874;28;20051;-74
2023/10/20 10:43:22;;;;;;;0.40;0.40;;;;;;;15.50;100.00;97501.00;5035017;28;20079;-74
2023/10/20 10:45:54;;;;;;;0.50;0.50;;;;;;;15.74;100.00;97509.94;5035117;28;20057;-74
2023/10/20 10:48:23;;;;;;;0.45;0.45;;;;;;;16.03;100.00;97507.16;5030504;28;20092;-74
2023/10/20 10:50:51;;;;;;;0.50;0.50;;;;;;;16.37;100.00;97502.66;5013161;28;20033;-74
2023/10/20 10:53:16;;;;;;;0.45;0.45;;;;;;;16.42;100.00;97503.38;5007945;28;20045;-74
2023/10/20 10:55:43;;;;;;;0.50;0.50;;;;;;;16.72;100.00;97506.72;5030692;28;20092;-75
2023/10/20 10:58:14;;;;;;;0.50;0.50;;;;;;;17.11;100.00;97509.09;5034444;28;20041;-74
2023/10/20 11:00:41;;;;;;;0.60;0.60;;;;;;;17.74;100.00;97510.41;5002043;28;20033;-74
2023/10/20 11:03:08;;;;;;;0.40;0.40;;;;;;;17.96;100.00;97512.44;5030864;28;20134;-74
2023/10/20 11:05:34;;;;;;;0.40;0.40;;;;;;;17.48;100.00;97520.94;5031865;28;20460;-75
2023/10/20 11:08:04;;;;;;;0.50;0.50;;;;;;;17.32;100.00;97530.47;5015331;28;20049;-74
2023/10/20 11:10:32;;;;;;;0.50;0.50;;;;;;;17.33;100.00;97529.38;5034470;28;20053;-74
2023/10/20 11:12:58;;;;;;;0.40;0.40;;;;;;;17.78;100.00;97524.19;5032952;28;20120;-74
2023/10/20 11:15:30;;;;;;;0.40;0.40;;;;;;;17.93;100.00;97532.06;5001840;28;20029;-74
2023/10/20 11:18:00;;;;;;;0.50;0.50;;;;;;;17.59;100.00;97519.66;5033597;28;20041;-73
2023/10/20 11:20:27;;;;;;;0.40;0.40;;;;;;;17.41;100.00;97525.97;5015129;28;20056;-74
2023/10/20 11:22:53;;;;;;;0.40;0.40;;;;;;;17.11;100.00;97525.41;5032775;28;20033;-74
2023/10/20 11:25:19;;;;;;;0.40;0.40;;;;;;;16.97;100.00;97521.03;5033423;28;20033;-74
2023/10/20 11:27:53;;;;;;;0.50;0.50;;;;;;;17.08;100.00;97519.75;5016846;28;20048;-75
2023/10/20 11:30:32;;;;;;;0.60;0.60;;;;;;;17.19;100.00;97521.19;5033821;28;20056;-73
2023/10/20 11:32:58;;;;;;;1.02;1.02;;;;;;;17.41;100.00;97523.28;5010445;28;20484;-75
2023/10/20 11:35:25;;;;;;;0.50;0.50;;;;;;;17.66;100.00;97513.81;5031496;28;20479;-73
2023/10/20 11:37:51;;;;;;;0.52;0.52;;;;;;;17.56;100.00;97514.00;5023111;28;20029;-74
2023/10/20 11:40:18;;;;;;;0.43;0.43;;;;;;;17.74;100.00;97521.28;4989195;28;20033;-74
2023/10/20 11:42:44;;;;;;;0.40;0.40;;;;;;;18.10;100.00;97509.72;5032944;28;20029;-73
2023/10/20 11:45:13;;;;;;;0.40;0.40;;;;;;;18.18;100.00;97519.06;5039784;28;20033;-74
2023/10/20 11:47:39;;;;;;;0.40;0.40;;;;;;;18.13;100.00;97511.03;4995471;28;20035;-74
2023/10/20 11:50:08;;;;;;;0.40;0.40;;;;;;;18.07;100.00;97517.66;5015239;28;20045;-73
2023/10/20 11:52:38;;;;;;;0.40;0.40;;;;;;;17.93;100.00;97515.75;5063966;28;20045;-74